createdAt,value
2024-04-21T00:00:33.591Z,8.67
2024-04-21T00:03:37.610Z,8.57
2024-04-21T00:06:41.526Z,7.82
2024-04-21T00:09:45.300Z,8.32
2024-04-21T00:12:49.353Z,3.93
2024-04-21T00:15:52.982Z,2.67
2024-04-21T00:18:56.994Z,4.15
2024-04-21T00:22:00.753Z,5.90
2024-04-21T00:25:04.942Z,6.90
2024-04-21T00:28:09.154Z,6.87
2024-04-21T00:31:13.091Z,6.80
2024-04-21T00:34:17.073Z,5.53
2024-04-21T00:37:20.919Z,2.45
2024-04-21T00:40:24.894Z,2.50
2024-04-21T00:43:28.531Z,1.90
2024-04-21T00:46:34.347Z,1.80
2024-04-21T00:49:38.196Z,1.70
2024-04-21T00:52:41.977Z,1.60
2024-04-21T00:55:46.095Z,1.90
2024-04-21T00:58:51.064Z,1.67
2024-04-21T01:01:56.070Z,2.17
2024-04-21T01:05:01.258Z,1.90
2024-04-21T01:08:05.633Z,1.70
2024-04-21T01:11:18.592Z,2.20
2024-04-21T01:14:22.287Z,2.53
2024-04-21T01:17:26.129Z,1.97
2024-04-21T01:20:31.406Z,1.88
2024-04-21T01:23:35.528Z,2.00
2024-04-21T01:26:39.138Z,1.98
2024-04-21T01:29:42.781Z,2.13
2024-04-21T01:32:46.577Z,2.00
2024-04-21T01:35:50.702Z,2.10
2024-04-21T01:38:54.454Z,2.63
2024-04-21T01:41:57.962Z,3.78
2024-04-21T01:45:01.727Z,3.20
2024-04-21T01:48:06.260Z,2.67
2024-04-21T01:51:09.824Z,2.72
2024-04-21T01:54:13.567Z,2.20
2024-04-21T01:57:17.332Z,2.70
2024-04-21T02:00:21.127Z,2.93
2024-04-21T02:03:24.999Z,2.47
2024-04-21T02:06:28.753Z,2.40
2024-04-21T02:09:32.806Z,2.35
2024-04-21T02:12:36.672Z,2.50
2024-04-21T02:15:40.454Z,2.60
2024-04-21T02:18:44.224Z,2.67
2024-04-21T02:21:48.228Z,2.80
2024-04-21T02:24:52.296Z,2.45
2024-04-21T02:27:55.963Z,2.42
2024-04-21T02:30:59.733Z,2.70
2024-04-21T02:34:03.558Z,2.70
2024-04-21T02:37:07.645Z,2.65
2024-04-21T02:40:11.941Z,2.35
2024-04-21T02:43:15.769Z,12.32
2024-04-21T02:46:19.709Z,3.70
2024-04-21T02:49:23.824Z,3.77
2024-04-21T02:52:27.623Z,2.40
2024-04-21T02:55:31.411Z,2.08
2024-04-21T02:58:35.271Z,3.00
2024-04-21T03:01:38.981Z,2.30
2024-04-21T03:04:42.715Z,2.30
2024-04-21T03:07:46.293Z,2.80
2024-04-21T03:10:50.232Z,2.83
2024-04-21T03:13:54.281Z,2.70
2024-04-21T03:16:58.035Z,2.70
2024-04-21T03:20:01.952Z,2.20
2024-04-21T03:23:06.061Z,2.78
2024-04-21T03:26:09.699Z,3.22
2024-04-21T03:29:13.336Z,4.05
2024-04-21T03:32:20.541Z,2.47
2024-04-21T03:35:24.222Z,2.90
2024-04-21T03:38:27.991Z,2.70
2024-04-21T03:41:31.571Z,2.53
2024-04-21T03:44:35.972Z,2.90
2024-04-21T03:47:39.869Z,3.30
2024-04-21T03:50:44.134Z,2.83
2024-04-21T03:53:47.725Z,2.65
2024-04-21T03:56:51.849Z,3.30
2024-04-21T03:59:55.949Z,3.20
2024-04-21T04:02:59.590Z,3.23
2024-04-21T04:06:03.491Z,3.10
2024-04-21T04:09:07.310Z,7.25
2024-04-21T04:12:11.095Z,3.40
2024-04-21T04:15:14.819Z,2.90
2024-04-21T04:18:18.612Z,3.40
2024-04-21T04:21:22.210Z,3.07
2024-04-21T04:24:26.106Z,3.25
2024-04-21T04:27:29.743Z,4.50
2024-04-21T04:30:33.361Z,3.50
2024-04-21T04:33:37.423Z,3.80
2024-04-21T04:36:41.166Z,3.90
2024-04-21T04:39:45.011Z,4.00
2024-04-21T04:42:50.109Z,3.78
2024-04-21T04:45:53.873Z,3.50
2024-04-21T04:48:57.687Z,3.50
2024-04-21T04:52:01.345Z,4.23
2024-04-21T04:55:05.995Z,3.90
2024-04-21T04:58:11.251Z,4.00
2024-04-21T05:01:15.379Z,4.05
2024-04-21T05:04:19.378Z,3.93
2024-04-21T05:07:23.262Z,5.00
2024-04-21T05:10:28.388Z,4.43
2024-04-21T05:13:31.979Z,3.90
2024-04-21T05:16:35.729Z,3.72
2024-04-21T05:19:39.710Z,3.23
2024-04-21T05:22:43.572Z,4.30
2024-04-21T05:25:47.309Z,4.65
2024-04-21T05:28:51.081Z,5.05
2024-04-21T05:31:55.653Z,4.57
2024-04-21T05:34:59.609Z,5.67
2024-04-21T05:38:03.221Z,32.23
2024-04-21T05:41:07.004Z,5.00
2024-04-21T05:44:11.032Z,4.53
2024-04-21T05:47:14.730Z,3.80
2024-04-21T05:50:18.964Z,3.97
2024-04-21T05:53:23.025Z,3.67
2024-04-21T05:56:26.866Z,3.95
2024-04-21T05:59:30.602Z,4.18
2024-04-21T06:02:35.322Z,4.38
2024-04-21T06:05:39.308Z,4.50
2024-04-21T06:08:43.186Z,3.80
2024-04-21T06:11:46.862Z,4.07
2024-04-21T06:14:50.937Z,4.35
2024-04-21T06:17:54.908Z,3.53
2024-04-21T06:20:58.717Z,3.20
2024-04-21T06:24:02.526Z,3.23
2024-04-21T06:27:06.439Z,3.80
2024-04-21T06:30:10.531Z,4.25
2024-04-21T06:33:14.486Z,4.38
2024-04-21T06:36:18.877Z,4.10
2024-04-21T06:39:22.629Z,4.50
2024-04-21T06:42:26.657Z,12.73
2024-04-21T06:45:30.402Z,5.30
2024-04-21T06:48:34.098Z,5.38
2024-04-21T06:51:38.138Z,8.93
2024-04-21T06:54:42.027Z,6.60
2024-04-21T06:57:46.524Z,6.80
2024-04-21T07:00:51.850Z,6.47
2024-04-21T07:03:55.739Z,8.38
2024-04-21T07:06:59.399Z,5.57
2024-04-21T07:10:03.566Z,5.87
2024-04-21T07:13:07.304Z,6.25
2024-04-21T07:16:11.040Z,7.28
2024-04-21T07:19:14.915Z,7.68
2024-04-21T07:22:18.704Z,7.57
2024-04-21T07:25:25.416Z,5.77
2024-04-21T07:28:29.905Z,5.90
2024-04-21T07:31:34.204Z,5.93
2024-04-21T07:34:37.786Z,7.88
2024-04-21T07:37:41.641Z,7.27
2024-04-21T07:40:45.157Z,7.90
2024-04-21T07:43:49.106Z,7.88
2024-04-21T07:46:52.786Z,8.15
2024-04-21T07:49:56.416Z,7.53
2024-04-21T07:53:00.281Z,6.93
2024-04-21T07:56:04.297Z,7.33
2024-04-21T07:59:08.052Z,8.15
2024-04-21T08:02:11.973Z,7.95
2024-04-21T08:05:15.703Z,10.93
2024-04-21T08:08:20.423Z,9.07
2024-04-21T08:11:25.010Z,7.80
2024-04-21T08:14:28.789Z,7.90
2024-04-21T08:17:32.826Z,7.13
2024-04-21T08:20:37.128Z,8.70
2024-04-21T08:23:40.750Z,7.23
2024-04-21T08:26:44.368Z,6.97
2024-04-21T08:29:47.887Z,7.65
2024-04-21T08:32:51.841Z,7.18
2024-04-21T08:35:57.136Z,7.20
2024-04-21T08:39:00.968Z,14.70
2024-04-21T08:42:04.963Z,8.10
2024-04-21T08:45:09.672Z,8.45
2024-04-21T08:48:14.458Z,17.38
2024-04-21T08:51:18.555Z,8.07
2024-04-21T08:54:22.402Z,8.40
2024-04-21T08:57:28.502Z,8.23
2024-04-21T09:00:34.096Z,7.70
2024-04-21T09:03:39.937Z,9.02
2024-04-21T09:06:45.906Z,8.15
2024-04-21T09:09:49.918Z,9.53
2024-04-21T09:12:55.148Z,8.40
2024-04-21T09:15:59.134Z,8.05
2024-04-21T09:19:05.865Z,8.30
2024-04-21T09:22:10.920Z,8.52
2024-04-21T09:25:14.860Z,7.73
2024-04-21T09:28:18.863Z,8.03
2024-04-21T09:31:22.529Z,8.65
2024-04-21T09:34:26.532Z,8.23
2024-04-21T09:37:30.816Z,8.48
2024-04-21T09:40:38.231Z,7.97
2024-04-21T09:43:44.852Z,9.87
2024-04-21T09:46:49.816Z,7.43
2024-04-21T09:49:56.430Z,4.45
2024-04-21T09:53:01.571Z,4.60
2024-04-21T09:56:10.510Z,6.53
2024-04-21T09:59:16.447Z,5.10
2024-04-21T10:02:27.847Z,3.92
2024-04-21T10:05:33.386Z,4.00
2024-04-21T10:08:39.926Z,5.45
2024-04-21T10:11:43.633Z,5.90
2024-04-21T10:14:48.473Z,5.37
2024-04-21T10:18:00.215Z,6.38
2024-04-21T10:21:04.163Z,8.00
2024-04-21T10:24:08.141Z,8.77
2024-04-21T10:27:11.891Z,8.07
2024-04-21T10:30:15.916Z,7.17
2024-04-21T10:33:30.458Z,7.07
2024-04-21T10:36:48.633Z,6.45
2024-04-21T10:40:06.205Z,6.65
2024-04-21T10:43:10.917Z,8.63
2024-04-21T10:46:15.074Z,7.67
2024-04-21T10:49:19.637Z,7.18
2024-04-21T10:52:23.758Z,8.52
2024-04-21T10:55:27.911Z,8.60
2024-04-21T10:58:32.369Z,7.03
2024-04-21T11:01:36.257Z,6.57
2024-04-21T11:04:40.354Z,6.28
2024-04-21T11:07:44.355Z,6.00
2024-04-21T11:10:47.971Z,7.28
2024-04-21T11:13:54.413Z,7.93
2024-04-21T11:17:00.119Z,8.63
2024-04-21T11:20:04.230Z,7.43
2024-04-21T11:23:07.891Z,6.85
2024-04-21T11:26:12.331Z,5.95
2024-04-21T11:29:16.170Z,5.47
2024-04-21T11:32:20.130Z,6.17
2024-04-21T11:35:24.337Z,5.80
2024-04-21T11:38:28.048Z,5.60
2024-04-21T11:41:32.264Z,6.20
2024-04-21T11:44:37.686Z,5.83
2024-04-21T11:47:44.647Z,6.40
2024-04-21T11:50:48.556Z,5.90
2024-04-21T11:53:52.356Z,5.63
2024-04-21T11:56:56.972Z,6.20
2024-04-21T12:00:03.361Z,7.90
2024-04-21T12:03:09.432Z,6.57
2024-04-21T12:06:13.096Z,15.95
2024-04-21T12:09:17.059Z,7.00
2024-04-21T12:12:21.100Z,7.50
2024-04-21T12:15:24.829Z,9.37
2024-04-21T12:18:28.598Z,8.80
2024-04-21T12:21:35.733Z,12.90
2024-04-21T12:24:42.470Z,9.55
2024-04-21T12:27:47.313Z,8.85
2024-04-21T12:30:51.606Z,8.73
2024-04-21T12:33:55.479Z,14.17
2024-04-21T12:36:59.077Z,29.90
2024-04-21T12:40:03.001Z,40.75
2024-04-21T12:43:06.984Z,10.55
2024-04-21T12:46:10.793Z,8.03
2024-04-21T12:49:14.480Z,9.23
2024-04-21T12:52:18.542Z,8.43
2024-04-21T12:55:22.653Z,5.75
2024-04-21T12:58:26.694Z,5.65
2024-04-21T13:01:30.536Z,5.90
2024-04-21T13:04:34.416Z,6.10
2024-04-21T13:07:38.481Z,6.25
2024-04-21T13:10:42.283Z,6.32
2024-04-21T13:13:46.183Z,6.30
2024-04-21T13:16:49.961Z,8.50
2024-04-21T13:19:53.765Z,7.17
2024-04-21T13:23:00.271Z,7.97
2024-04-21T13:26:04.077Z,9.77
2024-04-21T13:29:07.885Z,7.10
2024-04-21T13:32:11.503Z,7.80
2024-04-21T13:35:15.342Z,10.17
2024-04-21T13:38:18.959Z,11.63
2024-04-21T13:41:22.760Z,9.18
2024-04-21T13:44:26.422Z,8.05
2024-04-21T13:47:33.424Z,8.67
2024-04-21T13:50:37.712Z,7.97
2024-04-21T13:53:41.390Z,6.55
2024-04-21T13:56:45.283Z,7.25
2024-04-21T13:59:48.984Z,6.68
2024-04-21T14:02:52.733Z,7.40
2024-04-21T14:05:56.590Z,7.30
2024-04-21T14:09:00.520Z,8.52
2024-04-21T14:12:04.380Z,7.10
2024-04-21T14:15:08.496Z,7.28
2024-04-21T14:18:12.147Z,8.87
2024-04-21T14:21:16.118Z,8.30
2024-04-21T14:24:20.732Z,7.20
2024-04-21T14:27:24.534Z,6.60
2024-04-21T14:30:28.421Z,6.78
2024-04-21T14:33:33.290Z,7.23
2024-04-21T14:36:37.470Z,6.27
2024-04-21T14:39:41.347Z,5.03
2024-04-21T14:42:44.995Z,4.22
2024-04-21T14:45:51.680Z,4.15
2024-04-21T14:48:55.698Z,4.13
2024-04-21T14:51:59.430Z,3.67
2024-04-21T14:55:05.466Z,3.63
2024-04-21T14:58:09.893Z,3.72
2024-04-21T15:01:13.651Z,3.70
2024-04-21T15:04:19.649Z,3.87
2024-04-21T15:07:23.596Z,4.77
2024-04-21T15:10:28.891Z,5.15
2024-04-21T15:13:32.852Z,6.57
2024-04-21T15:16:38.747Z,6.90
2024-04-21T15:19:43.074Z,7.20
2024-04-21T15:22:46.875Z,6.40
2024-04-21T15:25:50.665Z,6.25
2024-04-21T15:28:54.466Z,6.38
2024-04-21T15:31:58.311Z,6.72
2024-04-21T15:35:02.080Z,6.97
2024-04-21T15:38:06.155Z,7.20
2024-04-21T15:41:09.860Z,6.40
2024-04-21T15:44:13.676Z,6.05
2024-04-21T15:47:17.576Z,7.18
2024-04-21T15:50:21.568Z,5.63
2024-04-21T15:53:25.902Z,6.30
2024-04-21T15:56:29.612Z,7.60
2024-04-21T15:59:33.225Z,6.28
2024-04-21T16:02:37.802Z,6.90
2024-04-21T16:05:43.226Z,7.77
2024-04-21T16:08:47.069Z,6.93
2024-04-21T16:11:51.090Z,6.53
2024-04-21T16:14:54.834Z,6.43
2024-04-21T16:17:58.482Z,6.97
2024-04-21T16:21:02.442Z,5.57
2024-04-21T16:24:06.725Z,6.23
2024-04-21T16:27:10.571Z,8.10
2024-04-21T16:30:14.382Z,6.63
2024-04-21T16:33:18.233Z,8.52
2024-04-21T16:36:24.689Z,6.40
2024-04-21T16:39:28.959Z,6.97
2024-04-21T16:42:32.824Z,6.82
2024-04-21T16:45:37.533Z,7.20
2024-04-21T16:48:42.012Z,6.72
2024-04-21T16:51:46.032Z,6.63
2024-04-21T16:54:50.703Z,6.57
2024-04-21T16:57:59.136Z,7.13
2024-04-21T17:01:03.974Z,6.90
2024-04-21T17:04:08.455Z,5.60
2024-04-21T17:07:20.963Z,6.63
2024-04-21T17:10:26.467Z,8.00
2024-04-21T17:13:32.097Z,8.15
2024-04-21T17:16:36.002Z,10.95
2024-04-21T17:19:39.970Z,11.63
2024-04-21T17:22:44.280Z,10.23
2024-04-21T17:25:48.349Z,7.30
2024-04-21T17:28:52.195Z,9.55
2024-04-21T17:31:56.286Z,8.20
2024-04-21T17:35:00.263Z,6.32
2024-04-21T17:38:04.132Z,6.70
2024-04-21T17:41:09.932Z,6.47
2024-04-21T17:44:13.885Z,7.70
2024-04-21T17:47:18.384Z,8.60
2024-04-21T17:50:22.354Z,12.65
2024-04-21T17:53:26.356Z,9.10
2024-04-21T17:56:30.358Z,9.83
2024-04-21T17:59:34.763Z,10.38
2024-04-21T18:02:38.689Z,10.63
2024-04-21T18:05:42.925Z,11.63
2024-04-21T18:08:46.938Z,12.33
2024-04-21T18:11:50.962Z,11.50
2024-04-21T18:14:54.963Z,12.13
2024-04-21T18:17:59.001Z,11.10
2024-04-21T18:21:03.042Z,11.27
2024-04-21T18:24:07.246Z,10.03
2024-04-21T18:27:11.321Z,10.40
2024-04-21T18:30:15.205Z,10.90
2024-04-21T18:33:19.440Z,11.32
2024-04-21T18:36:23.374Z,9.63
2024-04-21T18:39:27.223Z,9.93
2024-04-21T18:42:31.043Z,8.83
2024-04-21T18:45:42.331Z,8.07
2024-04-21T18:48:46.395Z,7.88
2024-04-21T18:51:50.439Z,7.47
2024-04-21T18:54:54.757Z,8.17
2024-04-21T18:57:58.812Z,8.13
2024-04-21T19:01:14.856Z,7.68
2024-04-21T19:04:19.003Z,7.00
2024-04-21T19:07:22.994Z,7.60
2024-04-21T19:10:28.463Z,8.00
2024-04-21T19:13:32.985Z,7.40
2024-04-21T19:16:37.990Z,8.18
2024-04-21T19:19:42.341Z,8.60
2024-04-21T19:22:47.124Z,8.32
2024-04-21T19:25:51.707Z,8.80
2024-04-21T19:28:55.432Z,8.47
2024-04-21T19:31:59.402Z,8.55
2024-04-21T19:35:05.714Z,9.00
2024-04-21T19:38:09.752Z,9.65
2024-04-21T19:41:13.814Z,9.20
2024-04-21T19:44:17.671Z,8.53
2024-04-21T19:47:21.829Z,8.20
2024-04-21T19:50:25.969Z,9.00
2024-04-21T19:53:30.095Z,7.60
2024-04-21T19:56:35.043Z,7.87
2024-04-21T19:59:40.275Z,7.53
2024-04-21T20:02:44.373Z,7.78
2024-04-21T20:05:48.352Z,7.55
2024-04-21T20:08:52.322Z,6.60
2024-04-21T20:11:56.337Z,6.40
2024-04-21T20:15:19.117Z,6.53
2024-04-21T20:18:42.158Z,6.63
2024-04-21T20:21:45.876Z,7.05
2024-04-21T20:24:49.862Z,6.93
2024-04-21T20:27:56.050Z,7.03
2024-04-21T20:31:00.140Z,8.40
2024-04-21T20:34:04.158Z,7.80
2024-04-21T20:37:07.982Z,8.23
2024-04-21T20:40:12.157Z,8.15
2024-04-21T20:43:16.247Z,7.80
2024-04-21T20:46:23.599Z,8.50
2024-04-21T20:49:27.737Z,8.05
2024-04-21T20:52:31.813Z,8.52
2024-04-21T20:55:35.737Z,8.77
2024-04-21T20:58:49.298Z,8.70
2024-04-21T21:01:56.070Z,8.97
2024-04-21T21:05:00.407Z,8.75
2024-04-21T21:08:04.607Z,8.13
2024-04-21T21:11:08.628Z,8.63
2024-04-21T21:14:12.211Z,7.00
2024-04-21T21:17:15.932Z,7.00
2024-04-21T21:20:19.546Z,7.43
2024-04-21T21:23:25.146Z,8.15
2024-04-21T21:26:28.698Z,8.15
2024-04-21T21:29:32.431Z,8.60
2024-04-21T21:32:40.831Z,8.57
2024-04-21T21:35:54.657Z,8.93
2024-04-21T21:39:02.759Z,8.30
2024-04-21T21:42:07.404Z,8.57
2024-04-21T21:45:11.046Z,9.17
2024-04-21T21:48:14.979Z,8.80
2024-04-21T21:51:18.958Z,9.20
2024-04-21T21:54:22.593Z,9.85
2024-04-21T21:57:26.589Z,8.88
2024-04-21T22:00:30.098Z,8.93
2024-04-21T22:03:33.897Z,9.53
2024-04-21T22:06:37.422Z,9.32
2024-04-21T22:09:41.391Z,9.07
2024-04-21T22:12:45.212Z,9.77
2024-04-21T22:15:48.734Z,8.50
2024-04-21T22:18:52.446Z,8.70
2024-04-21T22:21:56.175Z,8.23
2024-04-21T22:24:59.927Z,7.30
2024-04-21T22:28:04.596Z,8.45
2024-04-21T22:31:08.536Z,8.03
2024-04-21T22:34:12.215Z,7.60
2024-04-21T22:37:15.992Z,8.38
2024-04-21T22:40:19.915Z,7.68
2024-04-21T22:43:24.361Z,7.57
2024-04-21T22:46:28.335Z,7.37
2024-04-21T22:49:32.185Z,9.10
2024-04-21T22:52:36.890Z,7.43
2024-04-21T22:55:40.712Z,7.85
2024-04-21T22:58:44.495Z,8.40
2024-04-21T23:01:48.538Z,7.67
2024-04-21T23:04:55.467Z,7.90
2024-04-21T23:07:59.254Z,7.82
2024-04-21T23:11:06.042Z,7.50
2024-04-21T23:14:10.314Z,7.85
2024-04-21T23:17:13.884Z,8.83
2024-04-21T23:20:19.757Z,7.40
2024-04-21T23:23:24.705Z,8.18
2024-04-21T23:26:28.838Z,7.68
2024-04-21T23:29:33.268Z,8.85
2024-04-21T23:32:37.603Z,8.73
2024-04-21T23:35:42.133Z,9.17
2024-04-21T23:38:45.897Z,8.73
2024-04-21T23:41:49.588Z,9.15
2024-04-21T23:44:53.446Z,8.80
2024-04-21T23:47:58.043Z,8.63
2024-04-21T23:51:01.689Z,10.17
2024-04-21T23:54:05.705Z,9.18
2024-04-21T23:57:09.369Z,9.15
